sensor_id;sensor_type;location;lat;lon;timestamp;P1;durP1;ratioP1;P2;durP2;ratioP2
27957;SDS011;15295;42.658;23.374;2024-02-28T00:02:00;33.13;;;18.85;;
27957;SDS011;15295;42.658;23.374;2024-02-28T00:04:26;41.58;;;20.17;;
27957;SDS011;15295;42.658;23.374;2024-02-28T00:06:52;33.75;;;19.52;;
27957;SDS011;15295;42.658;23.374;2024-02-28T00:09:17;34.65;;;19.83;;
27957;SDS011;15295;42.658;23.374;2024-02-28T00:11:43;38.60;;;19.52;;
27957;SDS011;15295;42.658;23.374;2024-02-28T00:14:10;36.65;;;19.38;;
27957;SDS011;15295;42.658;23.374;2024-02-28T00:16:36;37.05;;;19.20;;
27957;SDS011;15295;42.658;23.374;2024-02-28T00:19:02;33.53;;;19.52;;
27957;SDS011;15295;42.658;23.374;2024-02-28T00:21:27;36.72;;;20.67;;
27957;SDS011;15295;42.658;23.374;2024-02-28T00:23:53;38.30;;;20.50;;
27957;SDS011;15295;42.658;23.374;2024-02-28T00:26:19;38.45;;;19.23;;
27957;SDS011;15295;42.658;23.374;2024-02-28T00:28:44;38.65;;;20.80;;
27957;SDS011;15295;42.658;23.374;2024-02-28T00:31:12;37.75;;;20.90;;
27957;SDS011;15295;42.658;23.374;2024-02-28T00:33:37;35.67;;;19.67;;
27957;SDS011;15295;42.658;23.374;2024-02-28T00:36:04;38.22;;;20.15;;
27957;SDS011;15295;42.658;23.374;2024-02-28T00:38:29;32.78;;;19.83;;
27957;SDS011;15295;42.658;23.374;2024-02-28T00:40:56;38.42;;;20.30;;
27957;SDS011;15295;42.658;23.374;2024-02-28T00:43:22;36.53;;;21.23;;
27957;SDS011;15295;42.658;23.374;2024-02-28T00:45:47;37.45;;;21.48;;
27957;SDS011;15295;42.658;23.374;2024-02-28T00:48:12;37.00;;;20.58;;
27957;SDS011;15295;42.658;23.374;2024-02-28T00:50:41;35.10;;;19.98;;
27957;SDS011;15295;42.658;23.374;2024-02-28T00:53:06;39.72;;;21.30;;
27957;SDS011;15295;42.658;23.374;2024-02-28T00:55:32;36.75;;;20.65;;
27957;SDS011;15295;42.658;23.374;2024-02-28T00:57:58;35.55;;;20.45;;
27957;SDS011;15295;42.658;23.374;2024-02-28T01:00:23;39.67;;;20.77;;
27957;SDS011;15295;42.658;23.374;2024-02-28T01:02:49;43.90;;;21.83;;
27957;SDS011;15295;42.658;23.374;2024-02-28T01:05:14;41.15;;;22.05;;
27957;SDS011;15295;42.658;23.374;2024-02-28T01:07:40;41.65;;;21.85;;
27957;SDS011;15295;42.658;23.374;2024-02-28T01:10:06;42.10;;;21.88;;
27957;SDS011;15295;42.658;23.374;2024-02-28T01:12:32;40.70;;;21.33;;
27957;SDS011;15295;42.658;23.374;2024-02-28T01:14:57;44.45;;;22.10;;
27957;SDS011;15295;42.658;23.374;2024-02-28T01:17:23;37.72;;;22.00;;
27957;SDS011;15295;42.658;23.374;2024-02-28T01:19:48;39.08;;;21.70;;
27957;SDS011;15295;42.658;23.374;2024-02-28T01:22:14;35.95;;;22.35;;
27957;SDS011;15295;42.658;23.374;2024-02-28T01:24:39;41.47;;;22.67;;
27957;SDS011;15295;42.658;23.374;2024-02-28T01:27:05;42.50;;;21.70;;
27957;SDS011;15295;42.658;23.374;2024-02-28T01:29:30;49.30;;;23.25;;
27957;SDS011;15295;42.658;23.374;2024-02-28T01:31:56;44.60;;;23.08;;
27957;SDS011;15295;42.658;23.374;2024-02-28T01:34:23;43.80;;;23.33;;
27957;SDS011;15295;42.658;23.374;2024-02-28T01:36:48;41.55;;;23.10;;
27957;SDS011;15295;42.658;23.374;2024-02-28T01:39:14;43.83;;;23.15;;
27957;SDS011;15295;42.658;23.374;2024-02-28T01:41:40;43.35;;;22.67;;
27957;SDS011;15295;42.658;23.374;2024-02-28T01:44:08;41.58;;;22.65;;
27957;SDS011;15295;42.658;23.374;2024-02-28T01:46:34;42.95;;;22.83;;
27957;SDS011;15295;42.658;23.374;2024-02-28T01:49:00;39.20;;;22.90;;
27957;SDS011;15295;42.658;23.374;2024-02-28T01:51:27;45.92;;;23.42;;
27957;SDS011;15295;42.658;23.374;2024-02-28T01:53:53;40.83;;;23.50;;
27957;SDS011;15295;42.658;23.374;2024-02-28T01:56:20;39.60;;;22.17;;
27957;SDS011;15295;42.658;23.374;2024-02-28T01:58:48;40.08;;;20.00;;
27957;SDS011;15295;42.658;23.374;2024-02-28T02:01:15;39.45;;;21.13;;
27957;SDS011;15295;42.658;23.374;2024-02-28T02:03:42;42.40;;;21.63;;
27957;SDS011;15295;42.658;23.374;2024-02-28T02:06:08;41.28;;;21.88;;
27957;SDS011;15295;42.658;23.374;2024-02-28T02:08:36;37.47;;;21.55;;
27957;SDS011;15295;42.658;23.374;2024-02-28T02:11:04;39.78;;;21.95;;
27957;SDS011;15295;42.658;23.374;2024-02-28T02:13:31;39.20;;;22.33;;
27957;SDS011;15295;42.658;23.374;2024-02-28T02:15:56;42.80;;;21.92;;
27957;SDS011;15295;42.658;23.374;2024-02-28T02:18:22;42.03;;;22.27;;
27957;SDS011;15295;42.658;23.374;2024-02-28T02:20:52;46.60;;;23.02;;
27957;SDS011;15295;42.658;23.374;2024-02-28T02:23:23;42.53;;;22.65;;
27957;SDS011;15295;42.658;23.374;2024-02-28T02:25:49;41.05;;;22.92;;
27957;SDS011;15295;42.658;23.374;2024-02-28T02:28:15;40.53;;;22.80;;
27957;SDS011;15295;42.658;23.374;2024-02-28T02:30:41;43.15;;;22.20;;
27957;SDS011;15295;42.658;23.374;2024-02-28T02:33:07;42.00;;;22.30;;
27957;SDS011;15295;42.658;23.374;2024-02-28T02:35:33;43.40;;;23.70;;
27957;SDS011;15295;42.658;23.374;2024-02-28T02:37:59;43.53;;;23.38;;
27957;SDS011;15295;42.658;23.374;2024-02-28T02:40:25;49.40;;;23.55;;
27957;SDS011;15295;42.658;23.374;2024-02-28T02:42:52;42.97;;;23.25;;
27957;SDS011;15295;42.658;23.374;2024-02-28T02:45:17;41.33;;;23.08;;
27957;SDS011;15295;42.658;23.374;2024-02-28T02:47:43;43.60;;;23.98;;
27957;SDS011;15295;42.658;23.374;2024-02-28T02:50:09;46.80;;;23.02;;
27957;SDS011;15295;42.658;23.374;2024-02-28T02:52:37;40.92;;;23.15;;
27957;SDS011;15295;42.658;23.374;2024-02-28T02:55:03;45.85;;;23.75;;
27957;SDS011;15295;42.658;23.374;2024-02-28T02:57:29;46.90;;;24.13;;
27957;SDS011;15295;42.658;23.374;2024-02-28T02:59:57;48.03;;;24.00;;
27957;SDS011;15295;42.658;23.374;2024-02-28T03:02:23;43.45;;;23.98;;
27957;SDS011;15295;42.658;23.374;2024-02-28T03:04:48;40.33;;;23.30;;
27957;SDS011;15295;42.658;23.374;2024-02-28T03:07:14;41.78;;;23.42;;
27957;SDS011;15295;42.658;23.374;2024-02-28T03:09:39;42.20;;;23.90;;
27957;SDS011;15295;42.658;23.374;2024-02-28T03:12:05;47.25;;;24.58;;
27957;SDS011;15295;42.658;23.374;2024-02-28T03:14:30;42.00;;;23.80;;
27957;SDS011;15295;42.658;23.374;2024-02-28T03:16:56;47.67;;;23.40;;
27957;SDS011;15295;42.658;23.374;2024-02-28T03:19:22;43.03;;;23.33;;
27957;SDS011;15295;42.658;23.374;2024-02-28T03:21:48;43.47;;;22.20;;
27957;SDS011;15295;42.658;23.374;2024-02-28T03:24:14;49.80;;;24.23;;
27957;SDS011;15295;42.658;23.374;2024-02-28T03:26:40;47.75;;;24.00;;
27957;SDS011;15295;42.658;23.374;2024-02-28T03:29:05;46.00;;;24.23;;
27957;SDS011;15295;42.658;23.374;2024-02-28T03:31:31;42.42;;;23.55;;
27957;SDS011;15295;42.658;23.374;2024-02-28T03:33:57;50.28;;;23.67;;
27957;SDS011;15295;42.658;23.374;2024-02-28T03:36:22;43.08;;;24.00;;
27957;SDS011;15295;42.658;23.374;2024-02-28T03:38:48;47.58;;;23.60;;
27957;SDS011;15295;42.658;23.374;2024-02-28T03:41:14;41.63;;;23.25;;
27957;SDS011;15295;42.658;23.374;2024-02-28T03:43:39;44.08;;;24.23;;
27957;SDS011;15295;42.658;23.374;2024-02-28T03:46:05;48.13;;;23.83;;
27957;SDS011;15295;42.658;23.374;2024-02-28T03:48:30;39.83;;;23.58;;
27957;SDS011;15295;42.658;23.374;2024-02-28T03:50:56;49.35;;;23.35;;
27957;SDS011;15295;42.658;23.374;2024-02-28T03:53:21;46.72;;;23.42;;
27957;SDS011;15295;42.658;23.374;2024-02-28T03:55:47;46.85;;;24.83;;
27957;SDS011;15295;42.658;23.374;2024-02-28T03:58:12;47.28;;;24.52;;
27957;SDS011;15295;42.658;23.374;2024-02-28T04:00:38;46.22;;;25.48;;
27957;SDS011;15295;42.658;23.374;2024-02-28T04:03:04;43.53;;;24.67;;
27957;SDS011;15295;42.658;23.374;2024-02-28T04:05:30;45.55;;;23.98;;
27957;SDS011;15295;42.658;23.374;2024-02-28T04:07:56;45.72;;;24.60;;
27957;SDS011;15295;42.658;23.374;2024-02-28T04:10:21;48.65;;;25.52;;
27957;SDS011;15295;42.658;23.374;2024-02-28T04:12:47;47.92;;;24.63;;
27957;SDS011;15295;42.658;23.374;2024-02-28T04:15:13;42.97;;;24.13;;
27957;SDS011;15295;42.658;23.374;2024-02-28T04:17:39;50.58;;;25.65;;
27957;SDS011;15295;42.658;23.374;2024-02-28T04:20:11;41.53;;;23.52;;
27957;SDS011;15295;42.658;23.374;2024-02-28T04:22:37;47.42;;;23.83;;
27957;SDS011;15295;42.658;23.374;2024-02-28T04:25:07;46.88;;;24.92;;
27957;SDS011;15295;42.658;23.374;2024-02-28T04:27:34;48.42;;;25.45;;
27957;SDS011;15295;42.658;23.374;2024-02-28T04:30:03;48.60;;;25.05;;
27957;SDS011;15295;42.658;23.374;2024-02-28T04:32:32;47.10;;;25.00;;
27957;SDS011;15295;42.658;23.374;2024-02-28T04:34:57;47.25;;;25.00;;
27957;SDS011;15295;42.658;23.374;2024-02-28T04:37:23;49.85;;;24.80;;
27957;SDS011;15295;42.658;23.374;2024-02-28T04:39:48;50.10;;;24.83;;
27957;SDS011;15295;42.658;23.374;2024-02-28T04:42:14;47.03;;;23.77;;
27957;SDS011;15295;42.658;23.374;2024-02-28T04:44:41;46.47;;;24.70;;
27957;SDS011;15295;42.658;23.374;2024-02-28T04:47:07;45.88;;;23.83;;
27957;SDS011;15295;42.658;23.374;2024-02-28T04:49:32;46.42;;;23.40;;
27957;SDS011;15295;42.658;23.374;2024-02-28T04:51:58;48.65;;;24.75;;
27957;SDS011;15295;42.658;23.374;2024-02-28T04:54:24;47.35;;;23.88;;
27957;SDS011;15295;42.658;23.374;2024-02-28T04:56:50;44.47;;;23.27;;
27957;SDS011;15295;42.658;23.374;2024-02-28T04:59:16;40.78;;;23.67;;
27957;SDS011;15295;42.658;23.374;2024-02-28T05:01:41;45.45;;;23.95;;
27957;SDS011;15295;42.658;23.374;2024-02-28T05:06:38;48.58;;;24.83;;
27957;SDS011;15295;42.658;23.374;2024-02-28T05:09:19;48.53;;;24.10;;
27957;SDS011;15295;42.658;23.374;2024-02-28T05:11:45;50.88;;;25.48;;
27957;SDS011;15295;42.658;23.374;2024-02-28T05:14:11;47.25;;;24.45;;
27957;SDS011;15295;42.658;23.374;2024-02-28T05:16:37;45.17;;;23.58;;
27957;SDS011;15295;42.658;23.374;2024-02-28T05:19:02;42.67;;;24.20;;
27957;SDS011;15295;42.658;23.374;2024-02-28T05:21:29;54.17;;;25.88;;
27957;SDS011;15295;42.658;23.374;2024-02-28T05:23:55;51.88;;;25.10;;
27957;SDS011;15295;42.658;23.374;2024-02-28T05:26:20;46.42;;;24.60;;
27957;SDS011;15295;42.658;23.374;2024-02-28T05:28:46;54.08;;;26.35;;
27957;SDS011;15295;42.658;23.374;2024-02-28T05:31:21;57.95;;;29.33;;
27957;SDS011;15295;42.658;23.374;2024-02-28T05:33:51;48.63;;;26.27;;
27957;SDS011;15295;42.658;23.374;2024-02-28T05:36:19;49.63;;;26.75;;
27957;SDS011;15295;42.658;23.374;2024-02-28T05:38:56;50.22;;;24.90;;
27957;SDS011;15295;42.658;23.374;2024-02-28T05:41:23;61.00;;;29.10;;
27957;SDS011;15295;42.658;23.374;2024-02-28T05:43:49;57.60;;;27.70;;
27957;SDS011;15295;42.658;23.374;2024-02-28T05:46:16;70.30;;;30.02;;
27957;SDS011;15295;42.658;23.374;2024-02-28T05:48:44;67.47;;;30.33;;
27957;SDS011;15295;42.658;23.374;2024-02-28T05:51:11;49.65;;;26.33;;
27957;SDS011;15295;42.658;23.374;2024-02-28T05:53:37;51.08;;;27.80;;
27957;SDS011;15295;42.658;23.374;2024-02-28T05:56:03;60.22;;;28.20;;
27957;SDS011;15295;42.658;23.374;2024-02-28T05:58:29;59.17;;;28.90;;
27957;SDS011;15295;42.658;23.374;2024-02-28T06:00:56;62.00;;;29.15;;
27957;SDS011;15295;42.658;23.374;2024-02-28T06:03:22;56.50;;;27.95;;
27957;SDS011;15295;42.658;23.374;2024-02-28T06:05:49;58.45;;;28.63;;
27957;SDS011;15295;42.658;23.374;2024-02-28T06:08:14;49.88;;;25.88;;
27957;SDS011;15295;42.658;23.374;2024-02-28T06:10:40;57.13;;;27.80;;
27957;SDS011;15295;42.658;23.374;2024-02-28T06:13:07;54.83;;;25.08;;
27957;SDS011;15295;42.658;23.374;2024-02-28T06:15:33;51.53;;;25.35;;
27957;SDS011;15295;42.658;23.374;2024-02-28T06:17:58;57.83;;;26.48;;
27957;SDS011;15295;42.658;23.374;2024-02-28T06:20:25;61.42;;;25.85;;
27957;SDS011;15295;42.658;23.374;2024-02-28T06:22:51;48.53;;;22.70;;
27957;SDS011;15295;42.658;23.374;2024-02-28T06:25:18;48.25;;;23.45;;
27957;SDS011;15295;42.658;23.374;2024-02-28T06:27:45;46.90;;;24.70;;
27957;SDS011;15295;42.658;23.374;2024-02-28T06:30:11;50.72;;;24.58;;
27957;SDS011;15295;42.658;23.374;2024-02-28T06:32:40;53.10;;;23.60;;
27957;SDS011;15295;42.658;23.374;2024-02-28T06:35:07;39.95;;;23.02;;
27957;SDS011;15295;42.658;23.374;2024-02-28T06:37:33;50.28;;;24.42;;
27957;SDS011;15295;42.658;23.374;2024-02-28T06:39:59;50.08;;;22.23;;
27957;SDS011;15295;42.658;23.374;2024-02-28T06:42:25;47.65;;;24.60;;
27957;SDS011;15295;42.658;23.374;2024-02-28T06:44:50;46.55;;;23.17;;
27957;SDS011;15295;42.658;23.374;2024-02-28T06:47:16;43.97;;;22.10;;
27957;SDS011;15295;42.658;23.374;2024-02-28T06:49:41;44.10;;;25.50;;
27957;SDS011;15295;42.658;23.374;2024-02-28T06:52:07;50.42;;;23.58;;
27957;SDS011;15295;42.658;23.374;2024-02-28T06:54:32;51.42;;;23.70;;
27957;SDS011;15295;42.658;23.374;2024-02-28T06:56:58;40.47;;;22.55;;
27957;SDS011;15295;42.658;23.374;2024-02-28T06:59:23;49.65;;;23.42;;
27957;SDS011;15295;42.658;23.374;2024-02-28T07:01:49;45.53;;;23.85;;
27957;SDS011;15295;42.658;23.374;2024-02-28T07:04:14;46.88;;;23.42;;
27957;SDS011;15295;42.658;23.374;2024-02-28T07:06:40;46.67;;;24.85;;
27957;SDS011;15295;42.658;23.374;2024-02-28T07:09:08;46.55;;;23.15;;
27957;SDS011;15295;42.658;23.374;2024-02-28T07:11:34;41.53;;;23.42;;
27957;SDS011;15295;42.658;23.374;2024-02-28T07:14:00;42.90;;;24.88;;
27957;SDS011;15295;42.658;23.374;2024-02-28T07:16:29;52.95;;;25.80;;
27957;SDS011;15295;42.658;23.374;2024-02-28T07:18:54;55.40;;;28.38;;
27957;SDS011;15295;42.658;23.374;2024-02-28T07:21:20;52.90;;;26.15;;
27957;SDS011;15295;42.658;23.374;2024-02-28T07:23:45;49.33;;;25.70;;
27957;SDS011;15295;42.658;23.374;2024-02-28T07:26:17;51.63;;;27.33;;
27957;SDS011;15295;42.658;23.374;2024-02-28T07:28:43;53.90;;;26.50;;
27957;SDS011;15295;42.658;23.374;2024-02-28T07:31:17;51.50;;;25.95;;
27957;SDS011;15295;42.658;23.374;2024-02-28T07:33:43;45.17;;;25.02;;
27957;SDS011;15295;42.658;23.374;2024-02-28T07:36:10;44.47;;;24.33;;
27957;SDS011;15295;42.658;23.374;2024-02-28T07:38:36;55.75;;;26.48;;
27957;SDS011;15295;42.658;23.374;2024-02-28T07:41:02;50.53;;;26.10;;
27957;SDS011;15295;42.658;23.374;2024-02-28T07:43:27;48.08;;;26.08;;
27957;SDS011;15295;42.658;23.374;2024-02-28T07:45:54;41.25;;;23.85;;
27957;SDS011;15295;42.658;23.374;2024-02-28T07:48:19;42.92;;;23.65;;
27957;SDS011;15295;42.658;23.374;2024-02-28T07:50:45;49.88;;;27.45;;
27957;SDS011;15295;42.658;23.374;2024-02-28T07:53:11;43.72;;;24.88;;
27957;SDS011;15295;42.658;23.374;2024-02-28T07:55:38;45.97;;;25.15;;
27957;SDS011;15295;42.658;23.374;2024-02-28T07:58:07;50.63;;;27.73;;
27957;SDS011;15295;42.658;23.374;2024-02-28T08:00:34;50.63;;;28.27;;
27957;SDS011;15295;42.658;23.374;2024-02-28T08:03:00;61.75;;;30.23;;
27957;SDS011;15295;42.658;23.374;2024-02-28T08:05:25;39.60;;;24.55;;
27957;SDS011;15295;42.658;23.374;2024-02-28T08:07:59;40.28;;;24.23;;
27957;SDS011;15295;42.658;23.374;2024-02-28T08:10:24;104.10;;;51.25;;
27957;SDS011;15295;42.658;23.374;2024-02-28T08:12:50;48.53;;;26.52;;
27957;SDS011;15295;42.658;23.374;2024-02-28T08:15:15;43.22;;;24.50;;
27957;SDS011;15295;42.658;23.374;2024-02-28T08:17:41;43.97;;;23.65;;
27957;SDS011;15295;42.658;23.374;2024-02-28T08:20:07;37.20;;;21.05;;
27957;SDS011;15295;42.658;23.374;2024-02-28T08:22:33;34.28;;;21.25;;
27957;SDS011;15295;42.658;23.374;2024-02-28T08:24:59;34.33;;;20.55;;
27957;SDS011;15295;42.658;23.374;2024-02-28T08:27:24;30.67;;;19.85;;
27957;SDS011;15295;42.658;23.374;2024-02-28T08:29:50;41.80;;;19.90;;
27957;SDS011;15295;42.658;23.374;2024-02-28T08:32:17;35.58;;;19.88;;
27957;SDS011;15295;42.658;23.374;2024-02-28T08:34:46;30.65;;;19.27;;
27957;SDS011;15295;42.658;23.374;2024-02-28T08:37:13;36.53;;;20.35;;
27957;SDS011;15295;42.658;23.374;2024-02-28T08:39:38;39.08;;;24.60;;
27957;SDS011;15295;42.658;23.374;2024-02-28T08:42:04;37.25;;;21.60;;
27957;SDS011;15295;42.658;23.374;2024-02-28T08:44:30;32.65;;;21.60;;
27957;SDS011;15295;42.658;23.374;2024-02-28T08:47:05;41.25;;;24.65;;
27957;SDS011;15295;42.658;23.374;2024-02-28T08:49:32;40.20;;;24.65;;
27957;SDS011;15295;42.658;23.374;2024-02-28T08:51:58;39.00;;;23.15;;
27957;SDS011;15295;42.658;23.374;2024-02-28T08:54:23;44.17;;;24.77;;
27957;SDS011;15295;42.658;23.374;2024-02-28T08:56:50;40.80;;;23.73;;
27957;SDS011;15295;42.658;23.374;2024-02-28T08:59:16;37.45;;;22.52;;
27957;SDS011;15295;42.658;23.374;2024-02-28T09:01:41;42.00;;;23.50;;
27957;SDS011;15295;42.658;23.374;2024-02-28T09:04:07;42.97;;;22.58;;
27957;SDS011;15295;42.658;23.374;2024-02-28T09:06:34;38.63;;;23.08;;
27957;SDS011;15295;42.658;23.374;2024-02-28T09:14:03;35.72;;;21.52;;
27957;SDS011;15295;42.658;23.374;2024-02-28T09:16:29;39.25;;;23.05;;
27957;SDS011;15295;42.658;23.374;2024-02-28T09:19:02;39.50;;;22.80;;
27957;SDS011;15295;42.658;23.374;2024-02-28T09:21:28;50.10;;;23.15;;
27957;SDS011;15295;42.658;23.374;2024-02-28T09:26:29;39.67;;;23.38;;
27957;SDS011;15295;42.658;23.374;2024-02-28T09:28:57;44.55;;;22.52;;
27957;SDS011;15295;42.658;23.374;2024-02-28T09:31:22;36.90;;;22.90;;
27957;SDS011;15295;42.658;23.374;2024-02-28T09:33:48;38.08;;;22.65;;
27957;SDS011;15295;42.658;23.374;2024-02-28T09:36:14;37.65;;;22.70;;
27957;SDS011;15295;42.658;23.374;2024-02-28T09:38:45;37.30;;;22.13;;
27957;SDS011;15295;42.658;23.374;2024-02-28T09:41:14;39.38;;;22.95;;
27957;SDS011;15295;42.658;23.374;2024-02-28T09:43:41;38.28;;;22.40;;
27957;SDS011;15295;42.658;23.374;2024-02-28T09:46:07;39.17;;;20.35;;
27957;SDS011;15295;42.658;23.374;2024-02-28T09:48:44;35.38;;;20.05;;
27957;SDS011;15295;42.658;23.374;2024-02-28T09:51:15;37.92;;;22.00;;
27957;SDS011;15295;42.658;23.374;2024-02-28T09:56:18;37.25;;;20.58;;
27957;SDS011;15295;42.658;23.374;2024-02-28T09:58:45;35.13;;;20.98;;
27957;SDS011;15295;42.658;23.374;2024-02-28T10:01:11;44.22;;;20.92;;
27957;SDS011;15295;42.658;23.374;2024-02-28T10:03:40;37.78;;;20.02;;
27957;SDS011;15295;42.658;23.374;2024-02-28T10:06:07;43.88;;;22.95;;
27957;SDS011;15295;42.658;23.374;2024-02-28T10:08:34;33.28;;;19.35;;
27957;SDS011;15295;42.658;23.374;2024-02-28T10:11:02;38.55;;;19.70;;
27957;SDS011;15295;42.658;23.374;2024-02-28T10:13:27;37.33;;;19.30;;
27957;SDS011;15295;42.658;23.374;2024-02-28T10:15:53;26.90;;;17.15;;
27957;SDS011;15295;42.658;23.374;2024-02-28T10:18:37;31.80;;;15.90;;
27957;SDS011;15295;42.658;23.374;2024-02-28T10:21:03;32.50;;;17.65;;
27957;SDS011;15295;42.658;23.374;2024-02-28T10:23:29;27.13;;;16.35;;
27957;SDS011;15295;42.658;23.374;2024-02-28T10:25:54;25.10;;;15.20;;
27957;SDS011;15295;42.658;23.374;2024-02-28T10:28:26;28.90;;;15.38;;
27957;SDS011;15295;42.658;23.374;2024-02-28T10:30:53;37.88;;;19.88;;
27957;SDS011;15295;42.658;23.374;2024-02-28T10:33:19;24.52;;;13.77;;
27957;SDS011;15295;42.658;23.374;2024-02-28T10:35:44;25.98;;;14.73;;
27957;SDS011;15295;42.658;23.374;2024-02-28T10:38:11;24.52;;;15.27;;
27957;SDS011;15295;42.658;23.374;2024-02-28T10:40:37;25.23;;;14.00;;
27957;SDS011;15295;42.658;23.374;2024-02-28T10:43:05;20.67;;;12.13;;
27957;SDS011;15295;42.658;23.374;2024-02-28T10:45:32;25.27;;;12.95;;
27957;SDS011;15295;42.658;23.374;2024-02-28T10:48:01;25.63;;;13.90;;
27957;SDS011;15295;42.658;23.374;2024-02-28T10:50:28;25.25;;;13.73;;
27957;SDS011;15295;42.658;23.374;2024-02-28T10:52:54;27.08;;;16.67;;
27957;SDS011;15295;42.658;23.374;2024-02-28T10:55:33;22.60;;;13.55;;
27957;SDS011;15295;42.658;23.374;2024-02-28T10:58:04;23.98;;;13.25;;
27957;SDS011;15295;42.658;23.374;2024-02-28T11:00:33;21.20;;;13.20;;
27957;SDS011;15295;42.658;23.374;2024-02-28T11:03:00;21.08;;;13.77;;
27957;SDS011;15295;42.658;23.374;2024-02-28T11:05:37;22.00;;;13.43;;
27957;SDS011;15295;42.658;23.374;2024-02-28T11:08:11;26.30;;;13.60;;
27957;SDS011;15295;42.658;23.374;2024-02-28T11:10:45;28.63;;;15.57;;
27957;SDS011;15295;42.658;23.374;2024-02-28T11:13:21;30.33;;;15.60;;
27957;SDS011;15295;42.658;23.374;2024-02-28T11:15:51;25.67;;;13.50;;
27957;SDS011;15295;42.658;23.374;2024-02-28T11:18:17;23.92;;;14.02;;
27957;SDS011;15295;42.658;23.374;2024-02-28T11:20:44;23.65;;;12.68;;
27957;SDS011;15295;42.658;23.374;2024-02-28T11:23:12;20.33;;;11.73;;
27957;SDS011;15295;42.658;23.374;2024-02-28T11:25:39;28.05;;;13.10;;
27957;SDS011;15295;42.658;23.374;2024-02-28T11:28:05;17.33;;;11.38;;
27957;SDS011;15295;42.658;23.374;2024-02-28T11:30:32;20.35;;;10.85;;
27957;SDS011;15295;42.658;23.374;2024-02-28T11:32:58;16.08;;;10.30;;
27957;SDS011;15295;42.658;23.374;2024-02-28T11:35:24;19.38;;;11.10;;
27957;SDS011;15295;42.658;23.374;2024-02-28T11:37:55;16.20;;;11.25;;
27957;SDS011;15295;42.658;23.374;2024-02-28T11:40:23;23.60;;;10.85;;
27957;SDS011;15295;42.658;23.374;2024-02-28T11:42:50;17.88;;;10.40;;
27957;SDS011;15295;42.658;23.374;2024-02-28T11:45:16;19.42;;;10.52;;
27957;SDS011;15295;42.658;23.374;2024-02-28T11:47:43;16.98;;;11.68;;
27957;SDS011;15295;42.658;23.374;2024-02-28T11:50:10;18.95;;;10.15;;
27957;SDS011;15295;42.658;23.374;2024-02-28T11:52:35;17.60;;;10.57;;
27957;SDS011;15295;42.658;23.374;2024-02-28T11:55:01;24.33;;;12.13;;
27957;SDS011;15295;42.658;23.374;2024-02-28T11:57:27;19.00;;;10.57;;
27957;SDS011;15295;42.658;23.374;2024-02-28T11:59:54;20.85;;;10.80;;
27957;SDS011;15295;42.658;23.374;2024-02-28T12:02:19;17.98;;;10.70;;
27957;SDS011;15295;42.658;23.374;2024-02-28T12:04:50;17.75;;;10.30;;
27957;SDS011;15295;42.658;23.374;2024-02-28T12:07:17;16.95;;;9.55;;
27957;SDS011;15295;42.658;23.374;2024-02-28T12:09:50;18.80;;;9.45;;
27957;SDS011;15295;42.658;23.374;2024-02-28T12:12:15;15.02;;;9.63;;
27957;SDS011;15295;42.658;23.374;2024-02-28T12:14:41;19.88;;;9.43;;
27957;SDS011;15295;42.658;23.374;2024-02-28T12:17:08;20.50;;;11.25;;
27957;SDS011;15295;42.658;23.374;2024-02-28T12:24:34;23.75;;;10.85;;
27957;SDS011;15295;42.658;23.374;2024-02-28T12:26:59;18.98;;;10.90;;
27957;SDS011;15295;42.658;23.374;2024-02-28T12:29:25;19.73;;;10.43;;
27957;SDS011;15295;42.658;23.374;2024-02-28T12:31:50;17.13;;;10.52;;
27957;SDS011;15295;42.658;23.374;2024-02-28T12:34:16;20.55;;;10.65;;
27957;SDS011;15295;42.658;23.374;2024-02-28T12:36:42;18.33;;;10.43;;
27957;SDS011;15295;42.658;23.374;2024-02-28T12:39:07;20.83;;;10.75;;
27957;SDS011;15295;42.658;23.374;2024-02-28T12:41:37;20.95;;;10.18;;
27957;SDS011;15295;42.658;23.374;2024-02-28T12:46:38;19.70;;;10.82;;
27957;SDS011;15295;42.658;23.374;2024-02-28T12:49:04;19.88;;;10.80;;
27957;SDS011;15295;42.658;23.374;2024-02-28T12:51:42;17.90;;;9.60;;
27957;SDS011;15295;42.658;23.374;2024-02-28T12:54:09;17.58;;;8.48;;
27957;SDS011;15295;42.658;23.374;2024-02-28T12:56:35;19.13;;;9.10;;
27957;SDS011;15295;42.658;23.374;2024-02-28T12:59:02;21.45;;;11.75;;
27957;SDS011;15295;42.658;23.374;2024-02-28T13:01:44;13.48;;;8.77;;
27957;SDS011;15295;42.658;23.374;2024-02-28T13:04:12;14.85;;;8.25;;
27957;SDS011;15295;42.658;23.374;2024-02-28T13:06:38;14.75;;;9.07;;
27957;SDS011;15295;42.658;23.374;2024-02-28T13:09:04;15.93;;;8.43;;
27957;SDS011;15295;42.658;23.374;2024-02-28T13:11:50;20.02;;;11.07;;
27957;SDS011;15295;42.658;23.374;2024-02-28T13:14:15;12.85;;;7.82;;
27957;SDS011;15295;42.658;23.374;2024-02-28T13:16:41;18.30;;;8.80;;
27957;SDS011;15295;42.658;23.374;2024-02-28T13:19:07;14.20;;;7.30;;
27957;SDS011;15295;42.658;23.374;2024-02-28T13:21:45;22.75;;;9.98;;
27957;SDS011;15295;42.658;23.374;2024-02-28T13:24:11;16.98;;;7.70;;
27957;SDS011;15295;42.658;23.374;2024-02-28T13:26:36;12.15;;;7.20;;
27957;SDS011;15295;42.658;23.374;2024-02-28T13:29:02;12.50;;;7.10;;
27957;SDS011;15295;42.658;23.374;2024-02-28T13:31:29;15.50;;;8.30;;
27957;SDS011;15295;42.658;23.374;2024-02-28T13:33:55;15.80;;;8.07;;
27957;SDS011;15295;42.658;23.374;2024-02-28T13:36:21;15.05;;;6.13;;
27957;SDS011;15295;42.658;23.374;2024-02-28T13:38:47;15.40;;;6.00;;
27957;SDS011;15295;42.658;23.374;2024-02-28T13:41:28;11.73;;;6.88;;
27957;SDS011;15295;42.658;23.374;2024-02-28T13:43:53;16.30;;;7.43;;
27957;SDS011;15295;42.658;23.374;2024-02-28T13:46:19;12.48;;;6.97;;
27957;SDS011;15295;42.658;23.374;2024-02-28T13:48:44;10.73;;;6.47;;
27957;SDS011;15295;42.658;23.374;2024-02-28T13:51:13;15.90;;;6.03;;
27957;SDS011;15295;42.658;23.374;2024-02-28T13:53:40;11.85;;;5.88;;
27957;SDS011;15295;42.658;23.374;2024-02-28T13:56:05;17.30;;;7.10;;
27957;SDS011;15295;42.658;23.374;2024-02-28T13:58:31;17.08;;;6.97;;
27957;SDS011;15295;42.658;23.374;2024-02-28T14:00:58;15.25;;;7.13;;
27957;SDS011;15295;42.658;23.374;2024-02-28T14:03:24;16.52;;;7.78;;
27957;SDS011;15295;42.658;23.374;2024-02-28T14:05:50;18.58;;;8.20;;
27957;SDS011;15295;42.658;23.374;2024-02-28T14:08:17;16.65;;;7.78;;
27957;SDS011;15295;42.658;23.374;2024-02-28T14:10:42;12.75;;;7.90;;
27957;SDS011;15295;42.658;23.374;2024-02-28T14:13:08;19.08;;;8.05;;
27957;SDS011;15295;42.658;23.374;2024-02-28T14:15:34;16.23;;;7.97;;
27957;SDS011;15295;42.658;23.374;2024-02-28T14:18:03;14.10;;;7.80;;
27957;SDS011;15295;42.658;23.374;2024-02-28T14:20:29;18.42;;;7.80;;
27957;SDS011;15295;42.658;23.374;2024-02-28T14:22:57;19.33;;;8.55;;
27957;SDS011;15295;42.658;23.374;2024-02-28T14:25:33;22.98;;;8.63;;
27957;SDS011;15295;42.658;23.374;2024-02-28T14:28:02;17.95;;;8.77;;
27957;SDS011;15295;42.658;23.374;2024-02-28T14:30:28;19.55;;;8.45;;